createdAt,value
2018-12-19T00:01:46.356Z,95590.41
2018-12-19T00:04:14.745Z,95585.80
2018-12-19T00:06:43.278Z,95578.31
2018-12-19T00:09:11.673Z,95577.20
2018-12-19T00:11:40.079Z,95590.42
2018-12-19T00:14:08.464Z,95576.75
2018-12-19T00:16:36.888Z,95565.33
2018-12-19T00:19:05.390Z,95559.38
2018-12-19T00:21:33.796Z,95557.86
2018-12-19T00:24:02.209Z,95571.20
2018-12-19T00:26:30.611Z,95564.46
2018-12-19T00:28:59.039Z,95562.03
2018-12-19T00:31:27.440Z,95556.61
2018-12-19T00:33:56.153Z,95555.65
2018-12-19T00:36:24.556Z,95553.80
2018-12-19T00:38:52.983Z,95544.64
2018-12-19T00:41:21.365Z,95537.73
2018-12-19T00:43:49.770Z,95528.22
2018-12-19T00:46:18.169Z,95541.10
2018-12-19T00:48:46.582Z,95537.38
2018-12-19T00:51:15.005Z,95536.67
2018-12-19T00:53:43.418Z,95540.25
2018-12-19T00:56:11.833Z,95541.08
2018-12-19T00:58:40.222Z,95540.25
2018-12-19T01:01:08.625Z,95530.62
2018-12-19T01:03:37.561Z,95538.45
2018-12-19T01:06:06.073Z,95540.81
2018-12-19T01:08:34.461Z,95543.02
2018-12-19T01:11:02.871Z,95543.10
2018-12-19T01:13:31.269Z,95543.02
2018-12-19T01:15:59.681Z,95545.72
2018-12-19T01:18:28.081Z,95552.22
2018-12-19T01:20:56.497Z,95551.47
2018-12-19T01:23:24.892Z,95542.35
2018-12-19T01:25:53.301Z,95544.44
2018-12-19T01:28:21.700Z,95543.55
2018-12-19T01:30:50.125Z,95543.64
2018-12-19T01:33:18.525Z,95542.63
2018-12-19T01:35:47.002Z,95543.98
2018-12-19T01:38:15.449Z,95544.07
2018-12-19T01:40:43.869Z,95539.53
2018-12-19T01:43:12.269Z,95529.13
2018-12-19T01:45:40.672Z,95534.62
2018-12-19T01:48:09.101Z,95542.52
2018-12-19T01:50:37.529Z,95546.77
2018-12-19T01:53:05.916Z,95544.29
2018-12-19T01:55:34.342Z,95536.83
2018-12-19T01:58:02.748Z,95529.97
2018-12-19T02:00:32.645Z,95537.13
2018-12-19T02:03:01.653Z,95541.11
2018-12-19T02:05:30.121Z,95539.44
2018-12-19T02:07:58.501Z,95538.46
2018-12-19T02:10:27.041Z,95531.47
2018-12-19T02:12:55.437Z,95532.23
2018-12-19T02:15:23.836Z,95535.32
2018-12-19T02:17:52.318Z,95538.23
2018-12-19T02:20:20.784Z,95537.69
2018-12-19T02:22:49.176Z,95546.98
2018-12-19T02:25:17.592Z,95546.52
2018-12-19T02:27:45.984Z,95545.94
2018-12-19T02:30:14.380Z,95547.63
2018-12-19T02:32:42.791Z,95545.79
2018-12-19T02:35:11.172Z,95548.78
2018-12-19T02:37:39.554Z,95540.34
2018-12-19T02:40:08.114Z,95545.58
2018-12-19T02:42:36.513Z,95559.98
2018-12-19T02:45:05.264Z,95565.66
2018-12-19T02:47:33.673Z,95569.07
2018-12-19T02:50:02.199Z,95566.11
2018-12-19T02:52:30.715Z,95560.98
2018-12-19T02:54:59.134Z,95565.75
2018-12-19T02:57:27.518Z,95570.15
2018-12-19T02:59:55.910Z,95570.15
2018-12-19T03:02:24.317Z,95574.63
2018-12-19T03:04:52.710Z,95569.59
2018-12-19T03:07:21.096Z,95579.59
2018-12-19T03:09:49.517Z,95581.27
2018-12-19T03:12:17.906Z,95580.63
2018-12-19T03:14:46.313Z,95586.96
2018-12-19T03:17:14.736Z,95577.63
2018-12-19T03:19:43.136Z,95584.80
2018-12-19T03:22:11.529Z,95588.64
2018-12-19T03:24:39.949Z,95577.91
2018-12-19T03:27:08.345Z,95580.09
2018-12-19T03:29:36.732Z,95580.31
2018-12-19T03:32:05.177Z,95580.52
2018-12-19T03:34:33.569Z,95590.77
2018-12-19T03:37:01.961Z,95586.06
2018-12-19T03:39:30.397Z,95588.67
2018-12-19T03:41:58.781Z,95576.98
2018-12-19T03:44:27.173Z,95571.34
2018-12-19T03:46:55.598Z,95567.07
2018-12-19T03:49:24.117Z,95571.20
2018-12-19T03:51:52.654Z,95565.55
2018-12-19T03:54:21.296Z,95568.02
2018-12-19T03:56:50.023Z,95566.78
2018-12-19T03:59:18.424Z,95562.39
2018-12-19T04:01:46.845Z,95561.30
2018-12-19T04:04:15.240Z,95561.16
2018-12-19T04:06:43.651Z,95559.08
2018-12-19T04:09:12.066Z,95557.45
2018-12-19T04:11:40.465Z,95563.27
2018-12-19T04:14:08.878Z,95572.59
2018-12-19T04:16:37.280Z,95587.19
2018-12-19T04:19:05.693Z,95595.77
2018-12-19T04:21:34.081Z,95587.34
2018-12-19T04:24:02.484Z,95583.75
2018-12-19T04:26:30.876Z,95586.13
2018-12-19T04:28:59.307Z,95581.89
2018-12-19T04:31:27.713Z,95584.25
2018-12-19T04:33:56.135Z,95577.46
2018-12-19T04:36:24.528Z,95565.82
2018-12-19T04:38:53.056Z,95563.43
2018-12-19T04:41:21.449Z,95561.83
2018-12-19T04:43:49.865Z,95561.31
2018-12-19T04:46:18.249Z,95567.27
2018-12-19T04:48:46.644Z,95564.27
2018-12-19T04:51:15.053Z,95562.63
2018-12-19T04:53:43.475Z,95557.02
2018-12-19T04:56:11.887Z,95561.34
2018-12-19T04:58:40.293Z,95563.41
2018-12-19T05:01:08.685Z,95567.13
2018-12-19T05:03:37.104Z,95570.24
2018-12-19T05:06:05.501Z,95566.56
2018-12-19T05:08:33.904Z,95563.26
2018-12-19T05:11:02.289Z,95557.70
2018-12-19T05:13:30.722Z,95565.63
2018-12-19T05:15:59.115Z,95572.27
2018-12-19T05:18:27.526Z,95571.75
2018-12-19T05:20:55.954Z,95567.55
2018-12-19T05:23:24.365Z,95575.54
2018-12-19T05:25:52.782Z,95570.42
2018-12-19T05:28:21.168Z,95568.95
2018-12-19T05:30:49.557Z,95568.23
2018-12-19T05:33:17.955Z,95562.88
2018-12-19T05:35:46.332Z,95573.55
2018-12-19T05:38:14.741Z,95573.11
2018-12-19T05:40:43.121Z,95571.08
2018-12-19T05:43:11.531Z,95572.80
2018-12-19T05:45:39.945Z,95572.75
2018-12-19T05:48:08.349Z,95563.34
2018-12-19T05:50:36.957Z,95562.92
2018-12-19T05:53:05.509Z,95562.53
2018-12-19T05:55:33.897Z,95564.13
2018-12-19T05:58:02.300Z,95555.81
2018-12-19T06:00:30.682Z,95567.25
2018-12-19T06:02:59.113Z,95564.15
2018-12-19T06:05:27.518Z,95570.98
2018-12-19T06:07:56.029Z,95570.20
2018-12-19T06:10:26.318Z,95581.45
2018-12-19T06:12:54.875Z,95576.86
2018-12-19T06:15:23.265Z,95577.14
2018-12-19T06:17:51.681Z,95573.50
2018-12-19T06:20:20.208Z,95571.34
2018-12-19T06:22:48.624Z,95579.03
2018-12-19T06:25:17.027Z,95578.28
2018-12-19T06:27:45.544Z,95578.47
2018-12-19T06:30:14.376Z,95577.50
2018-12-19T06:32:43.000Z,95581.43
2018-12-19T06:35:11.397Z,95573.37
2018-12-19T06:37:39.812Z,95574.92
2018-12-19T06:40:08.660Z,95571.71
2018-12-19T06:42:37.088Z,95572.58
2018-12-19T06:45:07.196Z,95575.05
2018-12-19T06:47:35.609Z,95576.47
2018-12-19T06:50:04.472Z,95575.19
2018-12-19T06:52:32.898Z,95578.45
2018-12-19T06:55:01.285Z,95581.98
2018-12-19T06:57:29.688Z,95589.57
2018-12-19T06:59:58.089Z,95584.83
2018-12-19T07:02:26.492Z,95585.68
2018-12-19T07:04:54.900Z,95586.75
2018-12-19T07:07:23.316Z,95584.72
2018-12-19T07:09:51.713Z,95575.75
2018-12-19T07:12:20.155Z,95582.11
2018-12-19T07:14:48.592Z,95580.66
2018-12-19T07:17:17.083Z,95580.52
2018-12-19T07:19:47.645Z,95581.05
2018-12-19T07:22:17.213Z,95586.00
2018-12-19T07:24:45.605Z,95591.64
2018-12-19T07:27:14.084Z,95604.89
2018-12-19T07:29:42.517Z,95603.20
2018-12-19T07:32:10.924Z,95597.59
2018-12-19T07:34:44.199Z,95602.05
2018-12-19T07:37:09.912Z,95599.62
2018-12-19T07:39:38.299Z,95605.34
2018-12-19T07:42:06.765Z,95602.98
2018-12-19T07:44:35.348Z,95610.98
2018-12-19T07:47:03.762Z,95612.52
2018-12-19T07:49:32.157Z,95617.13
2018-12-19T07:52:00.597Z,95617.80
2018-12-19T07:54:29.010Z,95619.13
2018-12-19T07:56:58.059Z,95616.00
2018-12-19T07:59:26.529Z,95623.08
2018-12-19T08:01:54.953Z,95618.37
2018-12-19T08:04:23.415Z,95621.50
2018-12-19T08:06:52.505Z,95618.03
2018-12-19T08:09:21.309Z,95611.77
2018-12-19T08:11:49.705Z,95620.00
2018-12-19T08:14:18.197Z,95622.44
2018-12-19T08:16:46.598Z,95627.40
2018-12-19T08:19:15.015Z,95618.41
2018-12-19T08:21:43.425Z,95612.31
2018-12-19T08:24:11.972Z,95612.62
2018-12-19T08:26:40.385Z,95617.61
2018-12-19T08:29:08.801Z,95616.23
2018-12-19T08:31:37.274Z,95622.08
2018-12-19T08:34:06.308Z,95626.20
2018-12-19T08:36:34.705Z,95625.62
2018-12-19T08:39:05.404Z,95624.24
2018-12-19T08:41:33.784Z,95634.82
2018-12-19T08:44:02.194Z,95632.34
2018-12-19T08:46:30.588Z,95638.45
2018-12-19T08:48:58.986Z,95632.34
2018-12-19T08:51:27.370Z,95629.31
2018-12-19T08:53:55.787Z,95633.99
2018-12-19T08:56:24.166Z,95633.67
2018-12-19T08:58:52.596Z,95624.91
2018-12-19T09:01:20.982Z,95632.98
2018-12-19T09:03:49.401Z,95628.80
2018-12-19T09:06:18.344Z,95629.20
2018-12-19T09:08:46.751Z,95623.47
2018-12-19T09:11:15.240Z,95625.17
2018-12-19T09:13:43.776Z,95624.66
2018-12-19T09:16:12.158Z,95622.67
2018-12-19T09:18:40.564Z,95630.48
2018-12-19T09:21:08.949Z,95628.70
2018-12-19T09:23:37.340Z,95625.87
2018-12-19T09:26:05.737Z,95615.61
2018-12-19T09:28:34.148Z,95614.67
2018-12-19T09:31:02.520Z,95621.75
2018-12-19T09:33:30.929Z,95622.94
2018-12-19T09:35:59.313Z,95630.47
2018-12-19T09:38:27.709Z,95624.56
2018-12-19T09:40:56.092Z,95628.62
2018-12-19T09:43:24.492Z,95625.80
2018-12-19T09:45:52.880Z,95621.02
2018-12-19T09:48:21.285Z,95617.84
2018-12-19T09:50:49.682Z,95615.41
2018-12-19T09:53:18.604Z,95626.05
2018-12-19T09:55:49.034Z,95632.19
2018-12-19T09:58:17.449Z,95638.12
2018-12-19T10:00:45.832Z,95631.80
2018-12-19T10:03:14.229Z,95628.03
2018-12-19T10:05:42.714Z,95617.15
2018-12-19T10:08:11.213Z,95619.03
2018-12-19T10:10:39.605Z,95613.25
2018-12-19T10:13:08.010Z,95617.45
2018-12-19T10:15:36.381Z,95618.13
2018-12-19T10:18:04.943Z,95612.61
2018-12-19T10:20:33.381Z,95605.18
2018-12-19T10:23:01.788Z,95595.30
2018-12-19T10:25:30.216Z,95581.97
2018-12-19T10:27:58.748Z,95581.64
2018-12-19T10:30:27.194Z,95579.56
2018-12-19T10:32:55.625Z,95574.33
2018-12-19T10:35:25.169Z,95575.90
2018-12-19T10:37:53.586Z,95571.56
2018-12-19T10:40:22.005Z,95566.23
2018-12-19T10:42:50.429Z,95568.92
2018-12-19T10:45:18.850Z,95572.03
2018-12-19T10:47:47.331Z,95573.14
2018-12-19T10:50:15.792Z,95585.28
2018-12-19T10:52:44.212Z,95583.59
2018-12-19T10:55:12.648Z,95576.49
2018-12-19T10:57:41.152Z,95570.53
2018-12-19T11:00:17.929Z,95560.22
2018-12-19T11:02:46.612Z,95560.05
2018-12-19T11:05:15.025Z,95553.98
2018-12-19T11:07:43.401Z,95548.91
2018-12-19T11:10:11.800Z,95563.81
2018-12-19T11:12:40.186Z,95560.50
2018-12-19T11:15:10.456Z,95562.34
2018-12-19T11:17:39.126Z,95548.45
2018-12-19T11:20:09.886Z,95544.49
2018-12-19T11:22:38.380Z,95538.99
2018-12-19T11:25:07.358Z,95544.86
2018-12-19T11:27:35.745Z,95542.28
2018-12-19T11:30:05.343Z,95539.89
2018-12-19T11:32:33.756Z,95540.36
2018-12-19T11:35:02.192Z,95540.56
2018-12-19T11:37:30.608Z,95527.86
2018-12-19T11:39:59.132Z,95517.39
2018-12-19T11:42:27.664Z,95504.30
2018-12-19T11:44:56.857Z,95501.63
2018-12-19T11:47:25.673Z,95497.77
2018-12-19T11:49:54.095Z,95498.15
2018-12-19T11:52:22.488Z,95495.19
2018-12-19T11:54:50.890Z,95496.94
2018-12-19T11:57:19.421Z,95493.18
2018-12-19T11:59:47.817Z,95492.59
2018-12-19T12:02:16.305Z,95499.20
2018-12-19T12:04:44.765Z,95485.12
2018-12-19T12:07:13.383Z,95478.11
2018-12-19T12:09:41.872Z,95479.11
2018-12-19T12:12:10.441Z,95479.94
2018-12-19T12:14:38.973Z,95470.14
2018-12-19T12:17:08.797Z,95465.70
2018-12-19T12:19:37.382Z,95460.82
2018-12-19T12:22:05.992Z,95459.23
2018-12-19T12:24:34.485Z,95457.31
2018-12-19T12:27:02.881Z,95457.09
2018-12-19T12:29:31.289Z,95458.77
2018-12-19T12:31:59.670Z,95450.81
2018-12-19T12:34:28.089Z,95449.63
2018-12-19T12:36:56.476Z,95461.34
2018-12-19T12:39:24.920Z,95462.23
2018-12-19T12:41:53.649Z,95472.47
2018-12-19T12:44:22.074Z,95474.81
2018-12-19T12:46:50.493Z,95470.00
2018-12-19T12:49:18.909Z,95470.84
2018-12-19T12:51:47.288Z,95464.56
2018-12-19T12:54:15.689Z,95466.86
2018-12-19T12:56:44.101Z,95459.04
2018-12-19T12:59:12.611Z,95462.51
2018-12-19T13:01:40.985Z,95453.47
2018-12-19T13:04:09.395Z,95445.84
2018-12-19T13:06:37.772Z,95441.64
2018-12-19T13:09:10.889Z,95448.02
2018-12-19T13:11:39.396Z,95439.44
2018-12-19T13:14:07.861Z,95448.29
2018-12-19T13:16:36.272Z,95446.44
2018-12-19T13:19:04.685Z,95441.84
2018-12-19T13:21:33.392Z,95437.23
2018-12-19T13:24:02.856Z,95437.99
2018-12-19T13:26:31.245Z,95438.45
2018-12-19T13:28:59.644Z,95431.70
2018-12-19T13:31:28.036Z,95436.89
2018-12-19T13:33:56.461Z,95436.16
2018-12-19T13:36:24.843Z,95431.84
2018-12-19T13:38:54.334Z,95425.09
2018-12-19T13:41:22.780Z,95421.38
2018-12-19T13:43:51.192Z,95410.56
2018-12-19T13:46:19.574Z,95410.64
2018-12-19T13:48:47.972Z,95415.97
2018-12-19T13:51:16.473Z,95421.08
2018-12-19T13:53:44.894Z,95415.73
2018-12-19T13:56:13.392Z,95413.45
2018-12-19T13:58:42.244Z,95413.91
2018-12-19T14:01:10.651Z,95408.85
2018-12-19T14:03:39.144Z,95410.03
2018-12-19T14:06:07.536Z,95411.94
2018-12-19T14:08:35.970Z,95409.09
2018-12-19T14:11:04.485Z,95410.38
2018-12-19T14:13:32.888Z,95405.86
2018-12-19T14:16:01.272Z,95402.06
2018-12-19T14:18:29.673Z,95398.88
2018-12-19T14:20:58.072Z,95397.28
2018-12-19T14:23:26.672Z,95391.96
2018-12-19T14:25:55.057Z,95397.13
2018-12-19T14:28:23.469Z,95396.75
2018-12-19T14:30:51.966Z,95392.98
2018-12-19T14:33:20.368Z,95385.36
2018-12-19T14:35:48.972Z,95387.26
2018-12-19T14:38:17.387Z,95375.83
2018-12-19T14:40:45.800Z,95374.05
2018-12-19T14:43:14.333Z,95369.36
2018-12-19T14:45:42.864Z,95369.05
2018-12-19T14:48:11.265Z,95361.42
2018-12-19T14:50:39.736Z,95356.61
2018-12-19T14:53:08.160Z,95363.44
2018-12-19T14:55:36.561Z,95364.23
2018-12-19T14:58:05.125Z,95368.24
2018-12-19T15:00:33.753Z,95377.97
2018-12-19T15:03:02.159Z,95386.11
2018-12-19T15:05:31.533Z,95397.44
2018-12-19T15:07:59.939Z,95399.61
2018-12-19T15:10:28.398Z,95400.62
2018-12-19T15:12:56.921Z,95403.52
2018-12-19T15:15:25.359Z,95402.02
2018-12-19T15:17:53.753Z,95395.83
2018-12-19T15:20:22.136Z,95395.60
2018-12-19T15:22:50.667Z,95389.52
2018-12-19T15:25:19.176Z,95389.12
2018-12-19T15:27:47.589Z,95385.70
2018-12-19T15:30:16.009Z,95385.23
2018-12-19T15:32:44.551Z,95379.66
2018-12-19T15:35:13.152Z,95377.97
2018-12-19T15:37:41.542Z,95369.66
2018-12-19T15:40:10.160Z,95365.72
2018-12-19T15:42:38.536Z,95365.04
2018-12-19T15:45:07.150Z,95355.25
2018-12-19T15:47:35.527Z,95357.84
2018-12-19T15:50:04.716Z,95353.28
2018-12-19T15:52:33.094Z,95352.88
2018-12-19T15:55:01.492Z,95340.05
2018-12-19T15:57:29.881Z,95334.12
2018-12-19T15:59:58.272Z,95335.19
2018-12-19T16:02:26.672Z,95327.59
2018-12-19T16:04:55.077Z,95323.00
2018-12-19T16:07:23.464Z,95305.64
2018-12-19T16:09:51.856Z,95312.82
2018-12-19T16:12:20.245Z,95310.09
2018-12-19T16:14:48.681Z,95317.57
2018-12-19T16:17:17.065Z,95316.39
2018-12-19T16:19:45.461Z,95310.52
2018-12-19T16:22:13.840Z,95309.52
2018-12-19T16:24:42.274Z,95300.75
2018-12-19T16:27:10.656Z,95299.92
2018-12-19T16:29:39.060Z,95294.95
2018-12-19T16:32:07.469Z,95293.36
2018-12-19T16:34:35.877Z,95306.11
2018-12-19T16:37:04.302Z,95315.45
2018-12-19T16:39:32.816Z,95315.07
2018-12-19T16:42:01.192Z,95318.30
2018-12-19T16:44:29.611Z,95319.51
2018-12-19T16:46:58.000Z,95320.08
2018-12-19T16:49:26.436Z,95320.08
2018-12-19T16:51:54.829Z,95315.94
2018-12-19T16:54:23.317Z,95324.21
2018-12-19T16:56:51.736Z,95323.79
2018-12-19T16:59:20.177Z,95331.42
2018-12-19T17:01:48.809Z,95331.94
2018-12-19T17:04:17.277Z,95338.15
2018-12-19T17:06:45.659Z,95334.71
2018-12-19T17:09:14.090Z,95340.16
2018-12-19T17:11:42.472Z,95340.11
2018-12-19T17:14:10.866Z,95334.93
2018-12-19T17:16:40.348Z,95328.83
2018-12-19T17:19:09.797Z,95326.34
2018-12-19T17:21:38.648Z,95316.74
2018-12-19T17:24:07.052Z,95316.06
2018-12-19T17:26:35.497Z,95315.95
2018-12-19T17:29:04.004Z,95316.49
2018-12-19T17:31:32.408Z,95319.83
2018-12-19T17:34:00.900Z,95313.30
2018-12-19T17:36:29.345Z,95310.50
2018-12-19T17:38:57.754Z,95301.47
2018-12-19T17:41:26.179Z,95302.07
2018-12-19T17:43:54.570Z,95302.72
2018-12-19T17:46:23.193Z,95311.37
2018-12-19T17:48:51.729Z,95317.22
2018-12-19T17:51:20.137Z,95303.84
2018-12-19T17:53:48.528Z,95303.28
2018-12-19T17:56:16.965Z,95293.58
2018-12-19T17:58:45.345Z,95286.11
2018-12-19T18:01:13.812Z,95288.96
2018-12-19T18:03:42.215Z,95282.78
2018-12-19T18:06:10.695Z,95278.53
2018-12-19T18:08:40.426Z,95263.27
2018-12-19T18:11:08.854Z,95258.00
2018-12-19T18:13:37.249Z,95249.54
2018-12-19T18:16:05.734Z,95246.24
2018-12-19T18:18:34.248Z,95244.49
2018-12-19T18:21:02.706Z,95233.95
2018-12-19T18:23:31.099Z,95239.79
2018-12-19T18:25:59.622Z,95237.41
2018-12-19T18:28:28.013Z,95233.95
2018-12-19T18:30:56.644Z,95236.69
2018-12-19T18:33:25.076Z,95233.49
2018-12-19T18:35:53.472Z,95233.00
2018-12-19T18:38:21.907Z,95238.72
2018-12-19T18:42:20.480Z,95237.81
2018-12-19T18:44:49.025Z,95243.03
2018-12-19T18:47:18.622Z,95257.93
2018-12-19T18:49:47.024Z,95254.73
2018-12-19T18:52:15.519Z,95251.59
2018-12-19T18:54:44.048Z,95253.02
2018-12-19T18:57:13.299Z,95252.75
2018-12-19T18:59:41.952Z,95249.80
2018-12-19T19:02:10.399Z,95252.83
2018-12-19T19:04:38.940Z,95264.26
2018-12-19T19:07:07.421Z,95271.42
2018-12-19T19:09:36.109Z,95269.88
2018-12-19T19:12:04.518Z,95262.68
2018-12-19T19:14:33.020Z,95259.27
2018-12-19T19:17:01.404Z,95266.09
2018-12-19T19:19:29.932Z,95273.55
2018-12-19T19:21:58.351Z,95276.51
2018-12-19T19:24:26.775Z,95270.77
2018-12-19T19:26:55.200Z,95267.37
2018-12-19T19:29:23.651Z,95257.73
2018-12-19T19:31:52.157Z,95255.89
2018-12-19T19:34:25.052Z,95265.25
2018-12-19T19:36:51.133Z,95276.67
2018-12-19T19:39:19.558Z,95283.46
2018-12-19T19:41:48.024Z,95285.97
2018-12-19T19:44:16.477Z,95285.70
2018-12-19T19:46:45.588Z,95283.68
2018-12-19T19:49:14.229Z,95292.70
2018-12-19T19:51:42.617Z,95291.33
2018-12-19T19:54:11.107Z,95291.57
2018-12-19T19:56:39.588Z,95294.73
2018-12-19T19:59:08.021Z,95305.95
2018-12-19T20:01:36.696Z,95305.31
2018-12-19T20:04:05.497Z,95299.02
2018-12-19T20:06:34.066Z,95299.23
2018-12-19T20:09:02.524Z,95310.75
2018-12-19T20:11:31.014Z,95310.83
2018-12-19T20:13:59.520Z,95304.60
2018-12-19T20:16:27.904Z,95309.86
2018-12-19T20:18:56.313Z,95306.22
2018-12-19T20:21:24.692Z,95309.65
2018-12-19T20:23:53.105Z,95312.31
2018-12-19T20:26:21.501Z,95322.08
2018-12-19T20:28:49.901Z,95318.52
2018-12-19T20:31:18.407Z,95323.15
2018-12-19T20:33:46.868Z,95320.08
2018-12-19T20:36:16.345Z,95311.03
2018-12-19T20:38:44.745Z,95318.64
2018-12-19T20:41:13.169Z,95321.42
2018-12-19T20:43:41.601Z,95327.92
2018-12-19T20:46:10.016Z,95326.75
2018-12-19T20:48:38.467Z,95331.06
2018-12-19T20:51:07.126Z,95332.73
2018-12-19T20:53:35.531Z,95333.19
2018-12-19T20:56:04.181Z,95333.19
2018-12-19T20:58:32.685Z,95341.30
2018-12-19T21:01:01.336Z,95343.32
2018-12-19T21:03:29.772Z,95350.13
2018-12-19T21:05:58.220Z,95349.96
2018-12-19T21:08:26.744Z,95350.86
2018-12-19T21:10:55.179Z,95350.31
2018-12-19T21:13:23.567Z,95355.99
2018-12-19T21:15:52.275Z,95354.53
2018-12-19T21:18:25.905Z,95352.42
2018-12-19T21:20:54.321Z,95344.63
2018-12-19T21:23:22.733Z,95337.09
2018-12-19T21:25:51.140Z,95347.48
2018-12-19T21:28:20.188Z,95356.53
2018-12-19T21:30:48.613Z,95351.83
2018-12-19T21:33:17.146Z,95344.02
2018-12-19T21:35:45.590Z,95346.48
2018-12-19T21:38:14.116Z,95345.56
2018-12-19T21:40:42.620Z,95351.84
2018-12-19T21:43:11.445Z,95354.48
2018-12-19T21:45:39.952Z,95357.36
2018-12-19T21:48:08.417Z,95361.22
2018-12-19T21:50:37.144Z,95358.11
2018-12-19T21:53:05.639Z,95368.27
2018-12-19T21:55:34.125Z,95366.88
2018-12-19T21:58:02.848Z,95370.15
2018-12-19T22:00:37.614Z,95366.79
2018-12-19T22:03:07.317Z,95370.72
2018-12-19T22:05:37.947Z,95381.27
2018-12-19T22:08:06.496Z,95371.57
2018-12-19T22:10:35.277Z,95378.02
2018-12-19T22:13:04.034Z,95377.00
2018-12-19T22:15:32.632Z,95372.41
2018-12-19T22:18:06.514Z,95369.58
2018-12-19T22:20:35.577Z,95375.63
2018-12-19T22:23:05.478Z,95378.15
2018-12-19T22:25:34.069Z,95372.55
2018-12-19T22:28:02.560Z,95360.67
2018-12-19T22:30:33.042Z,95366.84
2018-12-19T22:33:01.553Z,95351.31
2018-12-19T22:35:30.534Z,95348.66
2018-12-19T22:37:59.152Z,95346.09
2018-12-19T22:40:27.726Z,95342.42
2018-12-19T22:42:56.371Z,95348.12
2018-12-19T22:45:24.911Z,95338.84
2018-12-19T22:47:53.457Z,95340.36
2018-12-19T22:50:22.101Z,95342.72
2018-12-19T22:52:50.639Z,95344.36
2018-12-19T22:55:19.053Z,95339.22
2018-12-19T22:57:47.535Z,95342.48
2018-12-19T23:00:17.184Z,95342.81
2018-12-19T23:02:51.531Z,95346.14
2018-12-19T23:05:25.487Z,95348.65
2018-12-19T23:07:54.043Z,95355.84
2018-12-19T23:10:22.537Z,95356.92
2018-12-19T23:12:51.049Z,95353.53
2018-12-19T23:15:20.277Z,95352.91
2018-12-19T23:17:48.868Z,95349.98
2018-12-19T23:20:17.617Z,95355.34
2018-12-19T23:22:46.147Z,95348.81
2018-12-19T23:25:14.849Z,95344.76
2018-12-19T23:27:43.377Z,95353.50
2018-12-19T23:30:12.038Z,95345.11
2018-12-19T23:32:40.488Z,95347.97
2018-12-19T23:35:09.179Z,95353.84
2018-12-19T23:37:37.827Z,95349.98
2018-12-19T23:40:06.584Z,95345.93
2018-12-19T23:42:35.182Z,95344.48
2018-12-19T23:45:04.803Z,95352.13
2018-12-19T23:47:35.939Z,95360.28
2018-12-19T23:50:06.181Z,95358.46
2018-12-19T23:52:34.787Z,95357.45
2018-12-19T23:55:04.263Z,95358.99
2018-12-19T23:57:33.955Z,95364.89
